Hauptseite
METAR-TAF:

METAR-TAF

Flughäfen :

Flughafen Grenchen

Grenchen, Schweiz

Breite: 47-10-53N, Länge: 007-24-59E, Höhe: 430 m

Beobachtung

Neuester Wetterbericht von vor 28 Minuten, um 16:50 UTC
Wind 6 kt aus Ost
Temperatur 18°C
Luftfeuchtigkeit 73%
Luftdruck 1018 hPa
Sichtweite 10 km oder mehr
Leicht bewölkt in der Höhe von 3500 ft
Durchbrochene Bewölkung in der Höhe von 5000 ft
Durchbrochene Bewölkung in der Höhe von 6000 ft

METAR: LSZG 231650Z 08006KT 9999 FEW035 BKN050 BKN060 18/13 Q1018

Zeit: 19:18 (17:18 UTC)

Prognose

Neuester Wetterbericht von vor 2 Stunden und 53 Minuten, um 14:25 UTC
Gültige Prognose vom 23 um 15 UTC bis 23 um 24 UTC
Wind 9 kt aus Ost/Nordost
Sichtweite 10 km oder mehr
Leicht bewölkt in der Höhe von 3000 ft
Durchbrochene Bewölkung in der Höhe von 4000 ft

TAF: LSZG 231425Z 2315/2324 07009KT 9999 FEW030 BKN040

Wetterbeobachtungen und Prognosen von mehr als 4000 Flughäfen (METAR und TAF Bericht).

Die verfügbaren Stationen werden durch gelbe und rote Markierungen auf der Karte dargestellt.

Führen Sie die Maus auf sie, um den Namen der Station zu sehen.

Darauf klicken, um die Beobachtung von Wetterbeobachtungen und Prognosen zu sehen.

Um die Karte zu ändern : klicken Sie auf den grünen Tasten mit einem schwarzen Kreuz Zum Vergrößern, auf den grünen Button mit einem Gedankenstrich zu verkleinern, oder auf die grünen Pfeile für benachbarte Karten.


METAR-TAF: